Impacts METAR Board
IDs:

KMCO - Orlando Intl, FL, US

Updated at: 1900 UTC 22 Sep 2018
Potential Impact None Slight Moderate High
Time 22/07Z 22/08Z 22/09Z 22/10Z 22/11Z 22/12Z 22/13Z 22/14Z 22/15Z 22/16Z 22/17Z 22/18Z 22/19Z
Temp77 76 75 75 75 76 79 82 84 85 86 87 86
Dewpt74 74 74 74 74 75 76 75 75 73 72 72 71
Altim30.04 30.03 30.03 30.03 30.04 30.05 30.06 30.06 30.06 30.05 30.04 30.02 30.00
VIS10 10 10 10 10 10 10 10 10 10 10 10 10
CIG-- 250 -- -- -- -- -- -- 250 250 250 250 250
CoverSCTBKNSCTSCTFEWSCTSCTSCTBKNBKNBKNBKNBKN
FltCatVFRVFRVFRVFRVFRVFRVFRVFRVFRVFRVFRVFRVFR
WX--------------------------
WDir301035036035020360405030806070
WSpd4 4 4 5 5 6 6 9 9 12 11 12 10
WGst-- -- -- -- -- -- -- -- -- 16 -- -- --
Raw hourly METARs
KMCO 220653Z 03004KT 10SM FEW035 SCT250 25/23 A3004 RMK AO2 SLP170 T02500233
KMCO 220753Z 01004KT 10SM FEW035 BKN250 24/23 A3003 RMK AO2 SLP169 T02440233
KMCO 220853Z 35004KT 10SM FEW035 SCT250 24/23 A3003 RMK AO2 SLP166 T02390233 56012
KMCO 220953Z 36005KT 10SM FEW035 SCT250 24/23 A3003 RMK AO2 SLP168 T02390233
KMCO 221053Z 35005KT 10SM FEW035 FEW250 24/23 A3004 RMK AO2 SLP172 T02390233
KMCO 221153Z 02006KT 10SM FEW035 SCT250 24/24 A3005 RMK AO2 SLP173 70017 T02440239 10250 20239 51006
KMCO 221253Z 36006KT 10SM FEW035 SCT250 26/24 A3006 RMK AO2 SLP176 T02610244
KMCO 221353Z 04009KT 10SM FEW035 SCT250 28/24 A3006 RMK AO2 SLP177 T02780239
KMCO 221453Z 05009KT 10SM FEW035 BKN250 29/24 A3006 RMK AO2 SLP179 T02890239 51006
KMCO 221553Z 03012G16KT 10SM SCT026 BKN250 29/23 A3005 RMK AO2 SLP175 T02940228
KMCO 221653Z 08011KT 10SM SCT030 BKN250 30/22 A3004 RMK AO2 SLP172 T03000222
KMCO 221753Z 06012KT 10SM SCT033 BKN250 31/22 A3002 RMK AO2 SLP163 T03060222 10311 20244 58015
KMCO 221853Z 07010KT 10SM SCT038 BKN250 30/22 A3000 RMK AO2 SLP156 T03000217



Page loaded:  19:20 UTC  |   12:20 PM Pacific  |   01:20 PM Mountain  |   02:20 PM Central  |   03:20 PM Eastern

 

ADVISORIES

FORECASTS

FORECASTS

OBSERVATIONS

USER TOOLS

ABOUT US